Time;durP1;ratioP1;P1;durP2;ratioP2;P2;SDS_P1;SDS_P2;PMS_P1;PMS_P2;Temp;Humidity;BMP_temperature;BMP_pressure;BME280_temperature;BME280_humidity;BME280_pressure;Samples;Min_cycle;Max_cycle;Signal;HPM_P1;HPM_P2
2023/01/05 00:00:51;;;;;;;2.45;2.20;;;;;;;;;;4994980;28;20049;-43
2023/01/05 00:03:17;;;;;;;2.45;2.25;;;;;;;;;;4995084;28;20550;-44
2023/01/05 00:05:42;;;;;;;4.22;2.08;;;;;;;;;;4994420;28;20014;-46
2023/01/05 00:08:08;;;;;;;3.22;1.90;;;;;;;;;;4995302;28;20042;-44
2023/01/05 00:24:22;;;;;;;4.65;1.98;;;;;;;;;;4986324;28;20076;-44
2023/01/05 00:26:47;;;;;;;2.17;1.90;;;;;;;;;;4991999;28;20014;-45
2023/01/05 00:29:13;;;;;;;2.00;1.80;;;;;;;;;;4996917;28;20038;-43
2023/01/05 00:31:38;;;;;;;4.88;1.98;;;;;;;;;;4999503;28;20038;-44
2023/01/05 00:34:03;;;;;;;1.58;1.48;;;;;;;;;;4997321;28;20025;-45
2023/01/05 00:36:29;;;;;;;1.80;1.40;;;;;;;;;;4999877;28;20049;-44
2023/01/05 00:38:54;;;;;;;5.82;2.00;;;;;;;;;;4997071;28;20484;-43
2023/01/05 00:41:20;;;;;;;1.98;1.80;;;;;;;;;;5000199;28;20080;-44
2023/01/05 00:43:45;;;;;;;2.95;1.98;;;;;;;;;;4994672;28;20050;-44
2023/01/05 00:46:10;;;;;;;2.28;1.88;;;;;;;;;;4993033;28;20028;-43
2023/01/05 00:48:36;;;;;;;2.22;1.80;;;;;;;;;;4994405;28;20163;-45
2023/01/05 00:51:01;;;;;;;2.97;1.80;;;;;;;;;;4996806;28;20114;-43
2023/01/05 00:53:27;;;;;;;3.90;2.13;;;;;;;;;;4994925;28;20054;-43
2023/01/05 00:55:56;;;;;;;3.25;1.98;;;;;;;;;;5000146;28;20042;-44
2023/01/05 00:58:22;;;;;;;2.03;1.80;;;;;;;;;;4996964;28;20050;-43
2023/01/05 01:00:47;;;;;;;2.28;2.08;;;;;;;;;;4996776;28;20714;-44
2023/01/05 01:03:12;;;;;;;1.83;1.73;;;;;;;;;;4995624;28;20050;-44
2023/01/05 01:05:39;;;;;;;1.70;1.60;;;;;;;;;;4999658;28;20050;-43
2023/01/05 01:08:04;;;;;;;2.28;2.08;;;;;;;;;;4994912;28;20112;-45
2023/01/05 01:10:30;;;;;;;2.38;1.85;;;;;;;;;;4999558;28;20098;-45
2023/01/05 01:12:55;;;;;;;6.28;2.10;;;;;;;;;;4997176;28;20050;-43
2023/01/05 01:15:21;;;;;;;2.78;2.58;;;;;;;;;;5001181;28;20040;-45
2023/01/05 01:17:46;;;;;;;2.60;2.40;;;;;;;;;;4996111;28;20133;-44
2023/01/05 01:20:12;;;;;;;4.68;2.70;;;;;;;;;;4996095;28;20034;-45
2023/01/05 01:22:37;;;;;;;5.15;3.10;;;;;;;;;;4996185;28;20050;-44
2023/01/05 01:25:03;;;;;;;6.18;2.88;;;;;;;;;;4998388;28;20474;-44
2023/01/05 01:27:30;;;;;;;3.20;2.80;;;;;;;;;;4993456;28;20092;-43
2023/01/05 01:29:55;;;;;;;2.95;2.55;;;;;;;;;;4994862;28;20463;-43
2023/01/05 01:32:23;;;;;;;3.80;2.80;;;;;;;;;;4993548;28;20112;-43
2023/01/05 01:34:49;;;;;;;3.40;2.95;;;;;;;;;;4994985;28;20030;-43
2023/01/05 01:37:15;;;;;;;7.18;3.72;;;;;;;;;;4991827;28;20064;-44
2023/01/05 01:39:41;;;;;;;4.38;3.20;;;;;;;;;;4991696;28;20029;-45
2023/01/05 01:42:12;;;;;;;7.80;4.22;;;;;;;;;;4993584;28;20514;-43
2023/01/05 01:44:58;;;;;;;5.00;3.80;;;;;;;;;;4995426;28;20061;-43
2023/01/05 01:47:30;;;;;;;7.15;4.38;;;;;;;;;;4994866;28;20046;-44
2023/01/05 01:49:59;;;;;;;7.78;4.28;;;;;;;;;;4994961;28;20570;-43
2023/01/05 01:52:27;;;;;;;6.63;3.95;;;;;;;;;;4992393;28;20035;-45
2023/01/05 01:54:53;;;;;;;4.57;4.15;;;;;;;;;;4997095;28;20081;-44
2023/01/05 01:57:20;;;;;;;4.85;4.00;;;;;;;;;;4997902;28;20030;-43
2023/01/05 01:59:45;;;;;;;5.35;4.18;;;;;;;;;;4996429;28;20021;-45
2023/01/05 02:02:12;;;;;;;8.18;4.15;;;;;;;;;;4994189;28;20171;-45
2023/01/05 02:04:38;;;;;;;7.20;4.10;;;;;;;;;;4998625;28;20117;-44
2023/01/05 02:07:05;;;;;;;8.63;2.72;;;;;;;;;;4991893;28;20492;-44
2023/01/05 02:09:31;;;;;;;4.47;2.83;;;;;;;;;;4990859;28;20961;-43
2023/01/05 02:12:14;;;;;;;4.70;2.85;;;;;;;;;;4993641;28;20099;-47
2023/01/05 02:14:52;;;;;;;3.95;2.65;;;;;;;;;;4993413;28;20026;-44
2023/01/05 02:17:24;;;;;;;4.55;3.33;;;;;;;;;;4995030;28;20057;-44
2023/01/05 02:20:11;;;;;;;5.40;3.55;;;;;;;;;;4991705;28;20160;-44
2023/01/05 02:22:57;;;;;;;5.82;3.35;;;;;;;;;;4998277;28;20084;-43
2023/01/05 02:25:41;;;;;;;6.68;3.78;;;;;;;;;;4992204;28;20040;-44
2023/01/05 02:28:34;;;;;;;3.08;2.78;;;;;;;;;;4993837;28;20042;-44
2023/01/05 02:31:17;;;;;;;3.97;2.85;;;;;;;;;;4994319;28;20030;-47
2023/01/05 02:34:06;;;;;;;4.55;2.88;;;;;;;;;;4992533;28;20042;-47
2023/01/05 02:36:51;;;;;;;6.43;3.15;;;;;;;;;;4987345;28;20030;-45
2023/01/05 02:39:23;;;;;;;3.33;2.90;;;;;;;;;;4993449;28;20391;-49
2023/01/05 02:41:56;;;;;;;2.90;2.60;;;;;;;;;;4997538;28;20031;-44
2023/01/05 02:44:23;;;;;;;3.72;3.10;;;;;;;;;;4991389;28;20088;-46
2023/01/05 02:47:23;;;;;;;3.45;2.60;;;;;;;;;;4997651;28;20506;-43
2023/01/05 02:49:49;;;;;;;3.35;3.00;;;;;;;;;;4988926;28;20546;-47
2023/01/05 02:52:15;;;;;;;7.40;2.90;;;;;;;;;;4992605;28;20060;-47
2023/01/05 02:54:46;;;;;;;4.93;2.90;;;;;;;;;;4995495;28;20035;-44
2023/01/05 02:57:46;;;;;;;5.35;3.03;;;;;;;;;;4988731;28;20042;-43
2023/01/05 03:00:19;;;;;;;5.75;3.45;;;;;;;;;;4972777;28;20051;-45
2023/01/05 03:02:48;;;;;;;5.78;2.95;;;;;;;;;;4987387;28;20038;-43
2023/01/05 03:05:20;;;;;;;4.65;2.67;;;;;;;;;;4997722;28;20033;-46
2023/01/05 03:07:46;;;;;;;3.50;2.60;;;;;;;;;;4992707;28;20395;-44
2023/01/05 03:15:51;;;;;;;3.65;2.83;;;;;;;;;;4994999;28;20437;-46
2023/01/05 03:18:19;;;;;;;4.10;2.58;;;;;;;;;;4993709;28;20065;-47
2023/01/05 03:20:48;;;;;;;2.70;2.50;;;;;;;;;;4995727;28;20447;-44
2023/01/05 03:37:33;;;;;;;2.58;2.17;;;;;;;;;;4990196;28;20142;-47
2023/01/05 03:39:59;;;;;;;2.78;2.33;;;;;;;;;;4994128;28;20069;-48
2023/01/05 03:42:27;;;;;;;2.55;2.35;;;;;;;;;;4993142;28;20042;-45
2023/01/05 03:44:53;;;;;;;2.75;2.10;;;;;;;;;;4997733;28;20030;-46
2023/01/05 03:47:18;;;;;;;2.35;2.10;;;;;;;;;;4996342;28;20061;-46
2023/01/05 03:49:43;;;;;;;4.30;2.38;;;;;;;;;;4996896;28;20046;-44
2023/01/05 03:52:09;;;;;;;3.60;2.15;;;;;;;;;;4988391;28;20034;-44
2023/01/05 03:54:34;;;;;;;3.17;2.30;;;;;;;;;;4994703;28;20672;-51
2023/01/05 03:57:00;;;;;;;3.95;2.05;;;;;;;;;;4995289;28;20562;-44
2023/01/05 03:59:25;;;;;;;2.42;2.20;;;;;;;;;;4994704;28;20041;-44
2023/01/05 04:01:50;;;;;;;3.47;2.20;;;;;;;;;;4995779;28;20046;-44
2023/01/05 04:04:16;;;;;;;2.38;1.85;;;;;;;;;;4993652;28;20399;-45
2023/01/05 04:06:41;;;;;;;2.65;2.30;;;;;;;;;;4990434;28;20056;-45
2023/01/05 04:09:06;;;;;;;2.38;2.00;;;;;;;;;;4992103;28;20026;-43
2023/01/05 04:11:32;;;;;;;2.45;2.20;;;;;;;;;;4994563;28;20113;-43
2023/01/05 04:13:57;;;;;;;2.10;1.90;;;;;;;;;;4994056;28;20528;-43
2023/01/05 04:16:23;;;;;;;2.65;2.25;;;;;;;;;;4989428;28;20031;-45
2023/01/05 04:18:49;;;;;;;5.72;2.90;;;;;;;;;;4991708;28;20766;-48
2023/01/05 04:21:14;;;;;;;3.88;2.55;;;;;;;;;;4991844;28;20054;-49
2023/01/05 04:23:39;;;;;;;3.67;1.83;;;;;;;;;;4997851;28;20762;-49
2023/01/05 04:26:05;;;;;;;3.47;2.38;;;;;;;;;;4990628;28;20388;-45
2023/01/05 04:28:31;;;;;;;6.20;3.03;;;;;;;;;;4993646;28;20042;-46
2023/01/05 04:30:57;;;;;;;6.53;3.20;;;;;;;;;;4991473;28;20041;-50
2023/01/05 04:33:25;;;;;;;4.78;3.03;;;;;;;;;;4993475;28;20546;-48
2023/01/05 04:35:50;;;;;;;3.50;3.17;;;;;;;;;;4992220;28;20058;-44
2023/01/05 04:38:16;;;;;;;3.10;2.78;;;;;;;;;;4987982;28;20068;-47
2023/01/05 04:40:47;;;;;;;2.47;2.05;;;;;;;;;;4988555;28;20077;-48
2023/01/05 04:43:12;;;;;;;2.33;2.13;;;;;;;;;;4992929;28;20402;-45
2023/01/05 04:45:37;;;;;;;3.75;2.30;;;;;;;;;;4990332;28;20027;-44
2023/01/05 04:48:03;;;;;;;1.95;1.73;;;;;;;;;;4993746;28;20038;-46
2023/01/05 04:50:28;;;;;;;1.83;1.63;;;;;;;;;;4990635;28;20034;-44
2023/01/05 04:52:54;;;;;;;4.13;1.80;;;;;;;;;;4993854;28;20049;-48
2023/01/05 04:55:19;;;;;;;2.97;1.52;;;;;;;;;;4993837;28;20484;-46
2023/01/05 04:57:44;;;;;;;3.20;2.03;;;;;;;;;;4993206;28;20030;-49
2023/01/05 05:00:10;;;;;;;1.60;1.50;;;;;;;;;;4994235;28;20510;-46
2023/01/05 05:02:36;;;;;;;2.10;1.90;;;;;;;;;;4991616;28;20043;-46
2023/01/05 05:05:01;;;;;;;1.83;1.73;;;;;;;;;;4990127;28;20033;-48
2023/01/05 05:07:27;;;;;;;2.00;1.80;;;;;;;;;;4997454;28;20046;-48
2023/01/05 05:09:52;;;;;;;1.83;1.73;;;;;;;;;;4987964;28;20026;-45
2023/01/05 05:12:19;;;;;;;2.50;2.30;;;;;;;;;;4996910;28;20050;-44
2023/01/05 05:14:48;;;;;;;2.55;2.35;;;;;;;;;;4995167;28;20026;-44
2023/01/05 05:17:15;;;;;;;2.78;2.33;;;;;;;;;;4993113;28;20042;-48
2023/01/05 05:19:40;;;;;;;2.85;2.58;;;;;;;;;;4997498;28;20109;-45
2023/01/05 05:22:06;;;;;;;2.50;2.30;;;;;;;;;;4995593;28;20196;-43
2023/01/05 05:24:31;;;;;;;3.15;2.72;;;;;;;;;;4996972;28;20038;-43
2023/01/05 05:26:57;;;;;;;3.25;1.70;;;;;;;;;;4994956;28;20046;-43
2023/01/05 05:29:23;;;;;;;5.85;2.20;;;;;;;;;;4996099;28;20430;-43
2023/01/05 05:31:48;;;;;;;2.40;2.20;;;;;;;;;;4996642;28;20529;-43
2023/01/05 05:34:14;;;;;;;4.18;2.20;;;;;;;;;;4998614;28;20038;-44
2023/01/05 05:36:39;;;;;;;3.47;3.08;;;;;;;;;;4996209;28;20107;-46
2023/01/05 05:39:05;;;;;;;4.22;3.10;;;;;;;;;;4995951;28;20038;-45
2023/01/05 05:41:30;;;;;;;3.60;1.85;;;;;;;;;;4997035;28;20025;-43
2023/01/05 05:43:59;;;;;;;2.03;1.85;;;;;;;;;;4994535;28;20655;-44
2023/01/05 05:46:26;;;;;;;4.32;2.08;;;;;;;;;;4994334;28;20535;-42
2023/01/05 05:48:52;;;;;;;1.77;1.67;;;;;;;;;;4988951;28;20057;-44
2023/01/05 05:51:17;;;;;;;5.68;3.10;;;;;;;;;;4993196;28;20586;-44
2023/01/05 05:53:42;;;;;;;4.75;4.05;;;;;;;;;;4995832;28;20042;-44
2023/01/05 05:56:08;;;;;;;4.10;3.03;;;;;;;;;;4989507;28;20031;-44
2023/01/05 05:58:33;;;;;;;2.95;2.38;;;;;;;;;;4996966;28;20111;-47
2023/01/05 06:00:59;;;;;;;3.08;2.80;;;;;;;;;;4991023;28;20076;-46
2023/01/05 06:03:24;;;;;;;2.00;1.35;;;;;;;;;;4991246;28;20713;-45
2023/01/05 06:05:49;;;;;;;2.10;1.70;;;;;;;;;;4989334;28;20030;-43
2023/01/05 06:08:15;;;;;;;2.75;1.50;;;;;;;;;;4990810;28;20070;-43
2023/01/05 06:10:40;;;;;;;2.25;2.05;;;;;;;;;;4991464;28;21055;-43
2023/01/05 06:13:05;;;;;;;5.32;2.22;;;;;;;;;;4989570;28;20133;-45
2023/01/05 06:15:31;;;;;;;3.00;1.80;;;;;;;;;;4993913;28;20096;-43
2023/01/05 06:17:56;;;;;;;1.77;1.67;;;;;;;;;;4993077;28;20038;-43
2023/01/05 06:20:22;;;;;;;3.42;1.70;;;;;;;;;;4995038;28;20026;-45
2023/01/05 06:22:47;;;;;;;1.92;1.75;;;;;;;;;;4993067;28;20042;-43
2023/01/05 06:25:12;;;;;;;4.32;2.25;;;;;;;;;;4994237;28;20050;-44
2023/01/05 06:27:38;;;;;;;2.22;1.88;;;;;;;;;;4987947;28;20412;-44
2023/01/05 06:30:04;;;;;;;1.90;1.80;;;;;;;;;;4995376;28;20387;-43
2023/01/05 06:32:29;;;;;;;2.08;1.88;;;;;;;;;;4990712;28;20037;-43
2023/01/05 06:34:54;;;;;;;2.95;1.92;;;;;;;;;;4993570;28;20438;-46
2023/01/05 06:37:20;;;;;;;5.63;1.92;;;;;;;;;;4991041;28;20041;-42
2023/01/05 06:39:45;;;;;;;3.90;1.65;;;;;;;;;;4988545;28;20461;-44
2023/01/05 06:42:11;;;;;;;1.77;1.65;;;;;;;;;;4995746;28;20045;-43
2023/01/05 06:44:36;;;;;;;1.92;1.58;;;;;;;;;;4990258;28;20509;-44
2023/01/05 06:47:02;;;;;;;2.00;1.83;;;;;;;;;;4988393;28;20045;-44
2023/01/05 06:49:27;;;;;;;1.98;1.80;;;;;;;;;;4994180;28;20659;-46
2023/01/05 06:51:52;;;;;;;2.65;1.55;;;;;;;;;;4989273;28;20121;-45
2023/01/05 06:54:18;;;;;;;2.58;1.58;;;;;;;;;;4994252;28;20044;-47
2023/01/05 06:56:43;;;;;;;1.55;1.25;;;;;;;;;;4988847;28;20057;-43
2023/01/05 06:59:11;;;;;;;2.55;1.70;;;;;;;;;;4990674;28;20520;-43
2023/01/05 07:01:36;;;;;;;1.50;1.30;;;;;;;;;;4987090;28;20502;-44
2023/01/05 07:04:01;;;;;;;1.50;1.40;;;;;;;;;;4997463;28;20064;-45
2023/01/05 07:06:27;;;;;;;4.82;1.58;;;;;;;;;;4996744;28;20076;-45
2023/01/05 07:08:52;;;;;;;1.35;1.25;;;;;;;;;;4993835;28;20046;-43
2023/01/05 07:11:17;;;;;;;4.38;1.50;;;;;;;;;;4996021;28;20434;-44
2023/01/05 07:13:47;;;;;;;1.60;1.50;;;;;;;;;;4993468;28;20081;-47
2023/01/05 07:16:13;;;;;;;1.20;1.20;;;;;;;;;;4987164;28;20853;-45
2023/01/05 07:18:38;;;;;;;1.60;1.50;;;;;;;;;;4986901;28;20043;-45
2023/01/05 07:21:04;;;;;;;1.85;1.60;;;;;;;;;;4991795;28;20034;-43
2023/01/05 07:23:29;;;;;;;5.57;3.53;;;;;;;;;;4989230;28;20038;-44
2023/01/05 07:25:54;;;;;;;4.20;3.80;;;;;;;;;;4991150;28;20022;-42
2023/01/05 07:28:20;;;;;;;4.15;3.33;;;;;;;;;;4991592;28;20407;-43
2023/01/05 07:30:51;;;;;;;4.60;3.53;;;;;;;;;;4990103;28;20109;-44
2023/01/05 07:33:17;;;;;;;5.30;3.57;;;;;;;;;;4993498;28;20037;-43
2023/01/05 07:35:43;;;;;;;17.08;5.75;;;;;;;;;;4992967;28;20476;-44
2023/01/05 07:38:08;;;;;;;19.13;12.00;;;;;;;;;;4988939;28;20040;-43
2023/01/05 07:40:34;;;;;;;15.52;8.43;;;;;;;;;;4988779;28;20032;-46
2023/01/05 07:43:00;;;;;;;8.60;4.80;;;;;;;;;;4982891;28;20073;-43
2023/01/05 07:45:25;;;;;;;6.70;4.05;;;;;;;;;;4988203;28;20069;-43
2023/01/05 07:47:51;;;;;;;6.45;3.50;;;;;;;;;;4992180;28;20066;-43
2023/01/05 07:50:16;;;;;;;7.22;3.22;;;;;;;;;;4993879;28;20030;-43
2023/01/05 07:52:41;;;;;;;6.95;2.75;;;;;;;;;;4995599;28;20045;-43
2023/01/05 07:55:07;;;;;;;3.15;2.63;;;;;;;;;;4995925;28;20447;-45
2023/01/05 07:57:32;;;;;;;4.20;2.80;;;;;;;;;;4995412;28;20034;-43
2023/01/05 07:59:58;;;;;;;4.20;2.90;;;;;;;;;;4989022;28;20096;-43
2023/01/05 08:02:23;;;;;;;3.10;2.80;;;;;;;;;;4989848;28;20058;-44
2023/01/05 08:04:49;;;;;;;5.75;3.10;;;;;;;;;;4995081;28;20368;-44
2023/01/05 08:07:14;;;;;;;3.60;2.65;;;;;;;;;;4995760;28;20572;-45
2023/01/05 08:12:24;;;;;;;6.18;2.88;;;;;;;;;;4988331;28;20072;-45
2023/01/05 08:14:49;;;;;;;5.85;2.90;;;;;;;;;;4996628;28;20527;-44
2023/01/05 08:17:15;;;;;;;4.45;3.28;;;;;;;;;;4990326;28;20038;-43
2023/01/05 08:19:40;;;;;;;2.90;2.65;;;;;;;;;;4987169;28;20030;-44
2023/01/05 08:22:05;;;;;;;3.58;2.63;;;;;;;;;;4992560;28;20066;-48
2023/01/05 08:24:31;;;;;;;4.78;2.85;;;;;;;;;;4992724;28;20026;-43
2023/01/05 08:26:56;;;;;;;3.85;2.70;;;;;;;;;;4988980;28;20495;-46
2023/01/05 08:29:22;;;;;;;3.63;2.80;;;;;;;;;;4994185;28;20028;-44
2023/01/05 08:31:47;;;;;;;3.75;3.13;;;;;;;;;;4994123;28;20394;-43
2023/01/05 08:34:13;;;;;;;3.92;3.05;;;;;;;;;;4991309;28;20045;-43
2023/01/05 08:36:39;;;;;;;3.50;3.17;;;;;;;;;;4993724;28;20034;-41
2023/01/05 08:39:05;;;;;;;5.03;3.65;;;;;;;;;;4991556;28;20425;-44
2023/01/05 08:41:35;;;;;;;5.20;3.45;;;;;;;;;;4991297;28;20058;-43
2023/01/05 08:44:04;;;;;;;5.78;4.18;;;;;;;;;;4992374;28;20697;-44
2023/01/05 08:46:32;;;;;;;10.85;4.00;;;;;;;;;;4989918;28;20073;-44
2023/01/05 08:49:00;;;;;;;5.63;3.72;;;;;;;;;;4989835;28;20095;-44
2023/01/05 08:51:26;;;;;;;5.30;3.70;;;;;;;;;;4991413;28;20030;-44
2023/01/05 08:53:52;;;;;;;6.00;4.00;;;;;;;;;;4992501;28;20047;-44
2023/01/05 08:56:18;;;;;;;4.35;3.95;;;;;;;;;;4993695;28;20034;-43
2023/01/05 08:58:43;;;;;;;9.85;4.22;;;;;;;;;;4990421;28;20042;-43
2023/01/05 09:01:14;;;;;;;6.03;4.53;;;;;;;;;;4998600;28;20579;-43
2023/01/05 09:03:40;;;;;;;11.98;4.55;;;;;;;;;;4994849;28;20065;-44
2023/01/05 09:06:08;;;;;;;7.47;4.97;;;;;;;;;;4995600;28;20471;-44
2023/01/05 09:08:34;;;;;;;8.60;4.85;;;;;;;;;;4993959;28;20121;-45
2023/01/05 09:11:11;;;;;;;8.40;4.30;;;;;;;;;;4997013;28;20034;-43
2023/01/05 09:13:38;;;;;;;12.13;4.88;;;;;;;;;;4991267;28;20088;-43
2023/01/05 09:16:06;;;;;;;5.95;4.13;;;;;;;;;;4995526;28;20487;-43
2023/01/05 09:18:31;;;;;;;6.80;4.63;;;;;;;;;;4997192;28;20046;-44
2023/01/05 09:20:57;;;;;;;7.82;4.95;;;;;;;;;;4993323;28;20026;-43
2023/01/05 09:23:22;;;;;;;8.88;4.60;;;;;;;;;;4997092;28;20507;-45
2023/01/05 09:25:48;;;;;;;6.82;4.72;;;;;;;;;;4993832;28;20384;-48
2023/01/05 09:28:13;;;;;;;11.70;5.65;;;;;;;;;;4998719;28;20112;-43
2023/01/05 09:30:39;;;;;;;19.67;5.93;;;;;;;;;;4988305;28;20647;-46
2023/01/05 09:33:04;;;;;;;12.23;5.78;;;;;;;;;;4989493;28;20042;-44
2023/01/05 09:35:29;;;;;;;5.50;4.80;;;;;;;;;;4989418;28;20039;-45
2023/01/05 09:37:55;;;;;;;7.93;4.68;;;;;;;;;;4988460;28;20417;-45
2023/01/05 09:40:20;;;;;;;11.32;5.07;;;;;;;;;;4992680;28;20018;-44
2023/01/05 09:42:47;;;;;;;11.63;4.28;;;;;;;;;;4990111;28;20046;-45
2023/01/05 09:45:20;;;;;;;5.50;4.25;;;;;;;;;;4990569;28;20041;-47
2023/01/05 09:47:46;;;;;;;5.93;4.03;;;;;;;;;;4991825;28;20046;-42
2023/01/05 09:50:24;;;;;;;7.82;4.43;;;;;;;;;;4987313;28;20046;-43
2023/01/05 09:52:53;;;;;;;11.82;4.50;;;;;;;;;;4991337;28;20038;-44
2023/01/05 09:55:21;;;;;;;5.28;4.07;;;;;;;;;;4992605;28;20030;-43
2023/01/05 09:57:57;;;;;;;4.78;3.78;;;;;;;;;;4992492;28;20034;-43
2023/01/05 10:00:24;;;;;;;6.10;3.60;;;;;;;;;;4994862;28;20107;-44
2023/01/05 10:02:55;;;;;;;7.13;3.85;;;;;;;;;;4998345;28;20050;-44
2023/01/05 10:05:21;;;;;;;4.55;3.30;;;;;;;;;;4995241;28;20030;-43
2023/01/05 10:07:52;;;;;;;4.63;4.15;;;;;;;;;;4992331;28;20041;-44
2023/01/05 10:10:43;;;;;;;4.88;3.70;;;;;;;;;;4991995;28;20031;-43
2023/01/05 10:13:30;;;;;;;3.67;3.08;;;;;;;;;;4991022;28;20169;-43
2023/01/05 10:15:55;;;;;;;4.47;3.42;;;;;;;;;;4993432;28;20031;-43
2023/01/05 10:18:24;;;;;;;8.45;3.42;;;;;;;;;;4993034;28;20038;-46
2023/01/05 10:21:01;;;;;;;5.13;3.60;;;;;;;;;;4993267;28;20065;-44
2023/01/05 10:23:32;;;;;;;5.63;3.55;;;;;;;;;;4988243;28;20066;-46
2023/01/05 10:26:24;;;;;;;5.22;3.70;;;;;;;;;;4992643;28;20479;-44
2023/01/05 10:29:02;;;;;;;4.25;3.30;;;;;;;;;;4993518;28;20085;-43
2023/01/05 10:32:14;;;;;;;7.00;3.55;;;;;;;;;;4996219;28;20169;-44
2023/01/05 10:34:57;;;;;;;7.30;3.42;;;;;;;;;;4983200;28;20066;-41
2023/01/05 10:37:39;;;;;;;4.18;3.35;;;;;;;;;;4988161;28;20022;-48
2023/01/05 10:40:05;;;;;;;5.35;4.00;;;;;;;;;;4981526;28;20030;-43
2023/01/05 10:43:00;;;;;;;6.93;5.20;;;;;;;;;;4984147;28;20050;-46
2023/01/05 10:45:29;;;;;;;8.45;6.35;;;;;;;;;;4984383;28;20049;-46
2023/01/05 10:47:54;;;;;;;4.68;3.95;;;;;;;;;;4992608;28;20603;-47
2023/01/05 10:50:35;;;;;;;4.50;4.10;;;;;;;;;;4985876;28;20034;-43
2023/01/05 10:53:13;;;;;;;4.53;3.40;;;;;;;;;;4989795;28;20039;-45
2023/01/05 10:56:11;;;;;;;5.25;4.18;;;;;;;;;;4987466;28;20041;-43
2023/01/05 10:58:39;;;;;;;7.72;3.88;;;;;;;;;;4983423;28;20403;-45
2023/01/05 11:01:13;;;;;;;4.57;3.80;;;;;;;;;;4986574;28;20050;-46
2023/01/05 11:03:42;;;;;;;4.68;3.85;;;;;;;;;;4989128;28;20403;-43
2023/01/05 11:06:29;;;;;;;8.43;5.32;;;;;;;;;;4991217;28;21966;-44
2023/01/05 11:09:03;;;;;;;5.97;4.00;;;;;;;;;;4989173;28;20462;-44
2023/01/05 11:11:28;;;;;;;7.30;3.83;;;;;;;;;;4995712;28;20038;-44
2023/01/05 11:13:57;;;;;;;6.65;3.63;;;;;;;;;;4992810;28;20038;-44
2023/01/05 11:16:27;;;;;;;5.75;3.85;;;;;;;;;;4985006;28;20030;-44
2023/01/05 11:18:53;;;;;;;7.20;3.33;;;;;;;;;;4993248;28;20045;-43
2023/01/05 11:21:27;;;;;;;5.13;3.45;;;;;;;;;;4996245;28;20029;-43
2023/01/05 11:23:58;;;;;;;11.88;4.22;;;;;;;;;;4992170;28;20041;-43
2023/01/05 11:26:46;;;;;;;7.57;3.50;;;;;;;;;;4991438;28;20061;-47
2023/01/05 11:29:14;;;;;;;5.70;3.22;;;;;;;;;;4991233;28;20049;-43
2023/01/05 11:31:44;;;;;;;7.00;3.30;;;;;;;;;;4995121;28;20173;-43
2023/01/05 11:34:44;;;;;;;4.85;3.58;;;;;;;;;;4990371;28;20475;-43
2023/01/05 11:37:25;;;;;;;5.78;3.30;;;;;;;;;;4986441;28;20090;-44
2023/01/05 11:39:59;;;;;;;6.13;3.37;;;;;;;;;;4992154;28;20034;-47
2023/01/05 11:42:25;;;;;;;3.47;3.03;;;;;;;;;;4992390;28;20495;-43
2023/01/05 11:44:54;;;;;;;5.57;3.30;;;;;;;;;;4994635;28;20044;-43
2023/01/05 11:47:28;;;;;;;4.03;3.35;;;;;;;;;;4996442;28;20053;-42
2023/01/05 11:50:26;;;;;;;3.08;2.42;;;;;;;;;;4995765;28;20053;-44
2023/01/05 11:52:57;;;;;;;1.95;1.70;;;;;;;;;;4986212;28;20102;-46
2023/01/05 11:55:33;;;;;;;2.83;0.60;;;;;;;;;;4994788;28;20018;-44
2023/01/05 11:58:24;;;;;;;0.63;0.63;;;;;;;;;;4991847;28;20499;-43
2023/01/05 12:01:09;;;;;;;0.55;0.55;;;;;;;;;;4987701;28;20061;-43
2023/01/05 12:03:54;;;;;;;0.55;0.55;;;;;;;;;;4992188;28;20122;-44
2023/01/05 12:06:48;;;;;;;1.98;0.40;;;;;;;;;;4992990;28;20145;-47
2023/01/05 12:09:30;;;;;;;1.00;1.00;;;;;;;;;;4990293;28;20039;-43
2023/01/05 12:12:05;;;;;;;0.60;0.60;;;;;;;;;;4985793;28;20494;-44
2023/01/05 12:14:55;;;;;;;0.95;0.80;;;;;;;;;;4990119;28;20030;-44
2023/01/05 12:17:49;;;;;;;0.70;0.70;;;;;;;;;;4993972;28;20041;-44
2023/01/05 12:20:48;;;;;;;0.70;0.70;;;;;;;;;;4987133;28;20439;-45
2023/01/05 12:23:31;;;;;;;1.92;0.47;;;;;;;;;;4987853;28;20050;-43
2023/01/05 12:26:03;;;;;;;0.65;0.65;;;;;;;;;;4987896;28;20046;-46
2023/01/05 12:28:31;;;;;;;;;;;;;;;;;;4991857;28;20456;-43
2023/01/05 12:31:18;;;;;;;0.32;0.32;;;;;;;;;;4994730;28;19925;-43
2023/01/05 12:33:55;;;;;;;1.13;0.50;;;;;;;;;;4992906;28;20080;-45
2023/01/05 12:36:39;;;;;;;0.63;0.60;;;;;;;;;;4992578;28;20100;-45
2023/01/05 12:39:19;;;;;;;0.60;0.40;;;;;;;;;;4994445;28;20059;-43
2023/01/05 12:42:16;;;;;;;1.85;0.70;;;;;;;;;;4997944;28;20034;-43
2023/01/05 12:45:00;;;;;;;5.43;0.55;;;;;;;;;;4992844;28;20035;-50
2023/01/05 12:47:48;;;;;;;0.47;0.47;;;;;;;;;;4992477;28;20502;-44
2023/01/05 12:50:23;;;;;;;0.55;0.30;;;;;;;;;;4994604;28;20053;-44
2023/01/05 12:52:59;;;;;;;0.55;0.50;;;;;;;;;;4991942;28;20046;-47
2023/01/05 12:55:35;;;;;;;1.60;1.50;;;;;;;;;;4990675;28;20427;-45
2023/01/05 12:58:08;;;;;;;0.55;0.50;;;;;;;;;;4987679;28;20093;-52
2023/01/05 13:00:36;;;;;;;0.40;0.40;;;;;;;;;;4989990;28;20097;-43
2023/01/05 13:03:14;;;;;;;0.50;0.50;;;;;;;;;;4988881;28;20570;-43
2023/01/05 13:05:59;;;;;;;0.57;0.50;;;;;;;;;;4989876;28;20031;-44
2023/01/05 13:08:39;;;;;;;0.90;0.55;;;;;;;;;;4992453;28;20470;-45
2023/01/05 13:11:16;;;;;;;1.10;0.73;;;;;;;;;;4995152;28;20537;-48
2023/01/05 13:13:48;;;;;;;2.22;0.98;;;;;;;;;;4988988;28;20178;-43
2023/01/05 13:16:25;;;;;;;2.20;0.75;;;;;;;;;;4987424;28;20033;-44
2023/01/05 13:19:11;;;;;;;0.47;0.43;;;;;;;;;;4995435;28;20034;-44
2023/01/05 13:21:41;;;;;;;2.55;0.80;;;;;;;;;;4992629;28;20034;-46
2023/01/05 13:24:13;;;;;;;1.13;0.43;;;;;;;;;;4992562;28;20022;-44
2023/01/05 13:26:39;;;;;;;0.75;0.40;;;;;;;;;;4994465;28;20026;-44
2023/01/05 13:29:04;;;;;;;0.50;0.50;;;;;;;;;;4991312;28;20076;-49
2023/01/05 13:32:11;;;;;;;0.60;0.60;;;;;;;;;;4993167;28;20073;-43
2023/01/05 13:34:45;;;;;;;0.82;0.60;;;;;;;;;;4994890;28;20054;-53
2023/01/05 13:37:38;;;;;;;1.92;1.40;;;;;;;;;;4998787;28;20022;-49
2023/01/05 13:40:20;;;;;;;1.77;1.67;;;;;;;;;;4999039;28;20073;-42
2023/01/05 13:43:23;;;;;;;0.70;0.70;;;;;;;;;;4995997;28;20141;-48
2023/01/05 13:45:57;;;;;;;1.55;1.45;;;;;;;;;;4993811;28;20038;-43
2023/01/05 13:49:00;;;;;;;0.70;0.70;;;;;;;;;;4993380;28;20050;-48
2023/01/05 13:51:32;;;;;;;0.98;0.70;;;;;;;;;;4992962;28;20057;-44
2023/01/05 13:54:03;;;;;;;0.40;0.40;;;;;;;;;;4996157;28;20097;-43
2023/01/05 13:56:31;;;;;;;2.80;0.52;;;;;;;;;;4989040;28;22323;-43
2023/01/05 13:59:19;;;;;;;1.13;0.57;;;;;;;;;;4994566;28;20126;-44
2023/01/05 14:01:45;;;;;;;1.35;0.52;;;;;;;;;;4994134;28;20050;-44
2023/01/05 14:04:22;;;;;;;0.55;0.43;;;;;;;;;;4992026;28;20495;-43
2023/01/05 14:06:51;;;;;;;0.50;0.50;;;;;;;;;;4993984;28;20029;-43
2023/01/05 14:09:44;;;;;;;6.03;0.60;;;;;;;;;;4995934;28;20122;-43
2023/01/05 14:12:15;;;;;;;0.70;0.50;;;;;;;;;;4999735;28;20044;-43
2023/01/05 14:15:02;;;;;;;0.60;0.60;;;;;;;;;;4997797;28;20659;-44
2023/01/05 14:17:56;;;;;;;0.52;0.52;;;;;;;;;;4995421;28;20046;-41
2023/01/05 14:20:36;;;;;;;2.95;0.60;;;;;;;;;;4991671;28;20080;-44
2023/01/05 14:23:21;;;;;;;0.80;0.68;;;;;;;;;;4999318;28;20042;-46
2023/01/05 14:26:02;;;;;;;0.38;0.38;;;;;;;;;;4999173;28;20053;-44
2023/01/05 14:28:27;;;;;;;0.45;0.45;;;;;;;;;;4996721;28;20050;-44
2023/01/05 14:31:13;;;;;;;0.60;0.50;;;;;;;;;;4994350;28;20039;-43
2023/01/05 14:33:49;;;;;;;0.80;0.63;;;;;;;;;;4990637;28;20042;-48
2023/01/05 14:36:33;;;;;;;1.38;0.80;;;;;;;;;;4992965;28;20160;-44
2023/01/05 14:39:01;;;;;;;1.92;0.57;;;;;;;;;;4997918;28;20041;-44
2023/01/05 14:41:28;;;;;;;0.60;0.55;;;;;;;;;;4995377;28;20033;-42
2023/01/05 14:44:02;;;;;;;2.28;1.48;;;;;;;;;;4994246;28;20118;-43
2023/01/05 14:46:44;;;;;;;1.00;1.00;;;;;;;;;;4999499;28;20038;-45
2023/01/05 14:49:24;;;;;;;0.98;0.50;;;;;;;;;;4999278;28;20052;-43
2023/01/05 14:51:55;;;;;;;0.50;0.50;;;;;;;;;;4996765;28;20030;-43
2023/01/05 14:54:53;;;;;;;1.42;0.55;;;;;;;;;;4990980;28;20030;-43
2023/01/05 14:57:24;;;;;;;0.93;0.60;;;;;;;;;;4974674;28;20545;-44
2023/01/05 15:00:00;;;;;;;2.63;1.03;;;;;;;;;;4971167;28;20054;-48
2023/01/05 15:02:31;;;;;;;0.63;0.60;;;;;;;;;;4971071;28;20447;-44
2023/01/05 15:05:03;;;;;;;0.63;0.60;;;;;;;;;;4974657;28;20023;-45
2023/01/05 15:08:11;;;;;;;0.40;0.40;;;;;;;;;;4969348;28;20142;-43
2023/01/05 15:10:57;;;;;;;0.90;0.90;;;;;;;;;;4894854;29;20540;-43
2023/01/05 15:13:23;;;;;;;1.38;1.10;;;;;;;;;;4898131;29;20123;-49
2023/01/05 15:16:25;;;;;;;4.78;0.90;;;;;;;;;;4894099;29;20846;-43
2023/01/05 15:19:15;;;;;;;1.15;1.02;;;;;;;;;;4893459;29;20048;-43
2023/01/05 15:22:08;;;;;;;1.60;0.88;;;;;;;;;;4890135;29;20159;-43
2023/01/05 15:24:51;;;;;;;1.45;1.00;;;;;;;;;;4896813;29;20173;-46
2023/01/05 15:27:34;;;;;;;1.45;1.23;;;;;;;;;;4894833;29;20421;-44
2023/01/05 15:30:29;;;;;;;1.50;1.40;;;;;;;;;;4898514;29;20034;-43
2023/01/05 15:33:17;;;;;;;2.33;1.83;;;;;;;;;;4912134;29;20051;-46
2023/01/05 15:35:51;;;;;;;1.50;1.40;;;;;;;;;;4929979;29;20061;-43
2023/01/05 15:38:25;;;;;;;1.52;1.42;;;;;;;;;;4927064;29;20050;-43
2023/01/05 15:41:09;;;;;;;1.02;0.98;;;;;;;;;;4945731;28;20050;-43
2023/01/05 15:43:37;;;;;;;1.40;1.30;;;;;;;;;;4991897;28;20038;-43
2023/01/05 15:46:03;;;;;;;1.13;1.02;;;;;;;;;;4994682;28;20033;-43